Terminal Aerodrome Forecast
Issued by NWS Tampa Bay Area, FL

Home | Current Version | Previous Version | Text Only | Print | Product List | Glossary On
Versions: 1 2 3 4 5 6 7 8 9 10 11 12 13
272
FTUS42 KTBW 132321
TAFSRQ
TAF
KSRQ 132321Z 1400/1424 34008KT P6SM SKC
     FM140400 02006KT P6SM SKC
     FM141400 06009KT P6SM SKC
     FM141800 10010G15KT P6SM SKC=

USA.gov is the U.S. government's official web portal to all federal, state and local government web resources and services.